createdAt,value
2023-02-26T00:04:59.907Z,80.87
2023-02-26T00:10:07.489Z,80.49
2023-02-26T00:15:15.259Z,80.52
2023-02-26T00:20:21.260Z,80.58
2023-02-26T00:25:26.831Z,79.99
2023-02-26T00:30:33.380Z,79.59
2023-02-26T00:35:39.451Z,78.91
2023-02-26T00:40:50.366Z,78.96
2023-02-26T00:46:21.990Z,78.51
2023-02-26T00:51:41.459Z,78.65
2023-02-26T00:56:47.018Z,77.75
2023-02-26T01:01:54.257Z,78.33
2023-02-26T01:07:00.242Z,78.12
2023-02-26T01:12:13.006Z,77.54
2023-02-26T01:17:39.933Z,77.70
2023-02-26T01:23:05.936Z,77.45
2023-02-26T01:28:11.902Z,76.85
2023-02-26T01:33:35.614Z,76.29
2023-02-26T01:38:59.447Z,76.55
2023-02-26T01:44:29.185Z,75.79
2023-02-26T01:49:35.468Z,75.91
2023-02-26T01:54:40.903Z,75.90
2023-02-26T01:59:49.517Z,75.28
2023-02-26T02:04:55.260Z,75.20
2023-02-26T02:10:00.992Z,75.19
2023-02-26T02:15:17.058Z,74.16
2023-02-26T02:20:44.946Z,74.24
2023-02-26T02:25:53.471Z,73.48
2023-02-26T02:31:24.181Z,73.10
2023-02-26T02:36:44.708Z,73.28
2023-02-26T02:42:02.292Z,72.83
2023-02-26T02:47:10.149Z,72.60
2023-02-26T02:52:18.645Z,72.29
2023-02-26T02:57:27.070Z,71.92
2023-02-26T03:02:47.273Z,72.08
2023-02-26T03:07:55.856Z,71.42
2023-02-26T03:13:01.374Z,71.09
2023-02-26T03:18:22.348Z,70.97
2023-02-26T03:23:31.446Z,71.11
2023-02-26T03:28:49.050Z,70.98
2023-02-26T03:34:09.976Z,71.43
2023-02-26T03:39:19.732Z,71.95
2023-02-26T03:44:45.441Z,71.67
2023-02-26T03:50:06.066Z,72.00
2023-02-26T03:55:16.266Z,72.53
2023-02-26T04:00:24.581Z,72.56
2023-02-26T04:05:39.533Z,72.63
2023-02-26T04:10:48.214Z,72.81
2023-02-26T04:15:53.917Z,72.69
2023-02-26T04:20:59.648Z,72.92
2023-02-26T04:26:05.323Z,72.75
2023-02-26T04:31:12.215Z,72.38
2023-02-26T04:36:18.293Z,72.96
2023-02-26T04:41:23.811Z,73.90
2023-02-26T04:46:30.177Z,74.54
2023-02-26T04:51:36.038Z,75.08
2023-02-26T04:56:42.369Z,75.80
2023-02-26T05:01:48.354Z,76.03
2023-02-26T05:06:54.048Z,76.41
2023-02-26T05:11:59.844Z,76.15
2023-02-26T05:17:05.503Z,76.05
2023-02-26T05:22:11.019Z,76.43
2023-02-26T05:27:17.163Z,76.54
2023-02-26T05:32:24.434Z,76.50
2023-02-26T05:37:30.267Z,76.66
2023-02-26T05:42:35.782Z,76.85
2023-02-26T05:47:41.453Z,76.98
2023-02-26T05:52:47.225Z,77.40
2023-02-26T05:57:52.963Z,77.39
2023-02-26T06:02:58.525Z,77.42
2023-02-26T06:08:05.472Z,77.47
2023-02-26T06:13:11.353Z,77.59
2023-02-26T06:18:16.886Z,77.60
2023-02-26T06:23:22.387Z,77.37
2023-02-26T06:28:28.594Z,77.50
2023-02-26T06:33:34.118Z,77.20
2023-02-26T06:38:39.577Z,77.43
2023-02-26T06:43:44.950Z,77.13
2023-02-26T06:48:50.495Z,77.17
2023-02-26T06:53:56.049Z,76.99
2023-02-26T06:59:01.752Z,77.24
2023-02-26T07:04:07.281Z,77.14
2023-02-26T07:09:12.885Z,76.63
2023-02-26T07:14:18.303Z,76.40
2023-02-26T07:19:23.741Z,76.53
2023-02-26T07:24:30.424Z,75.83
2023-02-26T07:29:36.280Z,76.31
2023-02-26T07:34:42.525Z,75.34
2023-02-26T07:39:47.961Z,75.29
2023-02-26T07:44:53.442Z,74.94
2023-02-26T07:49:59.270Z,74.85
2023-02-26T07:55:06.706Z,74.37
2023-02-26T08:00:13.271Z,75.05
2023-02-26T08:05:19.017Z,73.13
2023-02-26T08:10:24.778Z,73.24
2023-02-26T08:15:30.580Z,72.97
2023-02-26T08:20:36.158Z,72.96
2023-02-26T08:25:41.779Z,72.66
2023-02-26T08:30:47.334Z,71.88
2023-02-26T08:35:53.865Z,70.87
2023-02-26T08:41:00.111Z,70.73
2023-02-26T08:46:05.990Z,71.37
2023-02-26T08:51:11.803Z,70.79
2023-02-26T08:56:17.856Z,70.54
2023-02-26T09:01:23.427Z,71.70
2023-02-26T09:06:30.560Z,71.29
2023-02-26T09:11:36.939Z,69.28
2023-02-26T09:16:42.672Z,69.93
2023-02-26T09:21:48.660Z,68.58
2023-02-26T09:26:54.501Z,68.20
2023-02-26T09:32:00.359Z,67.20
2023-02-26T09:37:07.582Z,67.24
2023-02-26T09:42:34.372Z,66.40
2023-02-26T09:47:43.007Z,66.40
2023-02-26T09:52:59.903Z,67.07
2023-02-26T09:58:07.967Z,66.32
2023-02-26T10:03:49.874Z,66.16
2023-02-26T10:09:04.162Z,66.88
2023-02-26T10:14:42.535Z,65.31
2023-02-26T10:19:51.835Z,64.68
2023-02-26T10:25:09.648Z,64.93
2023-02-26T10:30:33.055Z,64.87
2023-02-26T10:35:42.489Z,64.03
2023-02-26T10:41:09.154Z,64.29
2023-02-26T10:46:37.325Z,65.24
2023-02-26T10:51:43.365Z,62.99
2023-02-26T10:56:49.020Z,61.37
2023-02-26T11:01:55.328Z,61.37
2023-02-26T11:07:04.092Z,61.28
2023-02-26T11:12:18.223Z,61.28
2023-02-26T11:17:30.690Z,60.31
2023-02-26T11:22:37.836Z,61.33
2023-02-26T11:27:46.564Z,59.34
2023-02-26T11:32:54.861Z,59.73
2023-02-26T11:38:03.637Z,59.62
2023-02-26T11:43:11.940Z,59.13
2023-02-26T11:48:20.404Z,58.43
2023-02-26T11:53:28.869Z,57.62
2023-02-26T11:58:37.563Z,56.79
2023-02-26T12:03:46.477Z,55.86
2023-02-26T12:08:54.217Z,55.86
2023-02-26T12:14:19.375Z,56.79
2023-02-26T12:19:39.824Z,56.65
2023-02-26T12:25:14.049Z,55.25
2023-02-26T12:30:50.056Z,54.57
2023-02-26T12:36:47.705Z,54.70
2023-02-26T12:41:51.897Z,53.39
2023-02-26T12:47:06.456Z,52.82
2023-02-26T12:52:17.886Z,52.45
2023-02-26T12:57:55.240Z,52.45
2023-02-26T13:03:13.010Z,51.53
2023-02-26T13:08:47.174Z,51.53
2023-02-26T13:14:01.860Z,52.57
2023-02-26T13:19:13.505Z,51.43
2023-02-26T13:24:28.053Z,52.86
2023-02-26T13:29:40.261Z,51.24
2023-02-26T13:34:48.743Z,52.99
2023-02-26T13:40:00.210Z,52.99
2023-02-26T13:45:14.432Z,52.01
2023-02-26T13:50:44.296Z,50.19
2023-02-26T13:55:51.279Z,51.40
2023-02-26T14:01:32.672Z,51.15
2023-02-26T14:07:01.759Z,50.34
2023-02-26T14:12:19.081Z,50.30
2023-02-26T14:17:36.728Z,50.29
2023-02-26T14:22:44.631Z,50.29
2023-02-26T14:27:51.554Z,51.47
2023-02-26T14:33:10.229Z,51.47
2023-02-26T14:38:33.666Z,50.25
2023-02-26T14:43:42.092Z,50.25
2023-02-26T14:48:48.625Z,50.81
2023-02-26T14:54:03.804Z,51.37
2023-02-26T14:59:36.879Z,51.37
2023-02-26T15:04:51.020Z,51.39
2023-02-26T15:10:21.135Z,51.23
2023-02-26T15:15:35.582Z,51.17
2023-02-26T15:20:53.040Z,51.17
2023-02-26T15:25:58.778Z,51.18
2023-02-26T15:31:06.539Z,51.53
2023-02-26T15:36:18.047Z,51.66
2023-02-26T15:41:26.218Z,51.65
2023-02-26T15:46:37.927Z,51.08
2023-02-26T15:51:45.696Z,51.05
2023-02-26T15:56:52.845Z,51.20
2023-02-26T16:01:59.376Z,51.38
2023-02-26T16:07:05.450Z,51.76
2023-02-26T16:12:15.664Z,52.19
2023-02-26T16:17:33.173Z,52.48
2023-02-26T16:22:41.593Z,52.62
2023-02-26T16:27:55.738Z,52.55
2023-02-26T16:33:01.331Z,52.78
2023-02-26T16:38:21.492Z,52.86
2023-02-26T16:43:39.416Z,52.79
2023-02-26T16:49:08.828Z,53.07
2023-02-26T16:54:23.489Z,53.12
2023-02-26T16:59:31.918Z,53.25
2023-02-26T17:04:39.338Z,53.44
2023-02-26T17:09:50.812Z,53.77
2023-02-26T17:14:58.991Z,53.98
2023-02-26T17:20:06.290Z,54.42
2023-02-26T17:25:20.960Z,54.51
2023-02-26T17:30:28.072Z,55.04
2023-02-26T17:35:34.112Z,55.50
2023-02-26T17:40:40.150Z,55.95
2023-02-26T17:45:45.920Z,56.19
2023-02-26T17:50:56.230Z,56.69
2023-02-26T17:56:02.068Z,56.78
2023-02-26T18:01:08.760Z,57.20
2023-02-26T18:06:16.806Z,57.33
2023-02-26T18:11:24.408Z,57.73
2023-02-26T18:16:33.457Z,58.20
2023-02-26T18:21:38.969Z,58.03
2023-02-26T18:26:45.024Z,58.64
2023-02-26T18:31:50.970Z,58.99
2023-02-26T18:36:57.107Z,59.41
2023-02-26T18:42:02.844Z,59.36
2023-02-26T18:47:09.084Z,59.80
2023-02-26T18:52:14.720Z,60.28
2023-02-26T18:57:20.223Z,60.43
2023-02-26T19:02:26.138Z,60.89
2023-02-26T19:07:31.702Z,60.97
2023-02-26T19:12:37.529Z,61.53
2023-02-26T19:17:43.872Z,61.25
2023-02-26T19:22:51.008Z,61.78
2023-02-26T19:27:57.087Z,61.63
2023-02-26T19:33:03.188Z,62.24
2023-02-26T19:38:10.221Z,62.12
2023-02-26T19:43:15.833Z,62.39
2023-02-26T19:48:21.439Z,62.64
2023-02-26T19:53:27.539Z,62.32
2023-02-26T19:58:34.785Z,62.75
2023-02-26T20:03:40.253Z,63.15
2023-02-26T20:08:45.787Z,63.16
2023-02-26T20:13:52.884Z,63.28
2023-02-26T20:18:58.385Z,63.51
2023-02-26T20:24:05.162Z,63.95
2023-02-26T20:29:10.544Z,63.78
2023-02-26T20:34:19.206Z,63.84
2023-02-26T20:39:25.676Z,64.00
2023-02-26T20:44:31.516Z,64.34
2023-02-26T20:49:37.070Z,64.13
2023-02-26T20:54:42.718Z,64.31
2023-02-26T20:59:48.354Z,64.39
2023-02-26T21:04:54.037Z,64.62
2023-02-26T21:09:59.612Z,64.53
2023-02-26T21:15:09.317Z,65.04
2023-02-26T21:20:18.758Z,65.07
2023-02-26T21:25:24.521Z,65.37
2023-02-26T21:30:30.242Z,65.76
2023-02-26T21:35:35.929Z,65.99
2023-02-26T21:40:41.549Z,66.21
2023-02-26T21:45:49.626Z,66.53
2023-02-26T21:50:56.728Z,67.07
2023-02-26T21:56:02.228Z,67.12
2023-02-26T22:01:10.755Z,67.03
2023-02-26T22:06:16.291Z,67.67
2023-02-26T22:11:21.748Z,68.00
2023-02-26T22:16:27.635Z,68.35
2023-02-26T22:21:33.487Z,68.79
2023-02-26T22:26:39.287Z,68.91
2023-02-26T22:31:44.927Z,69.30
2023-02-26T22:36:52.342Z,69.65
2023-02-26T22:41:57.721Z,69.79
2023-02-26T22:47:03.172Z,70.23
2023-02-26T22:52:10.318Z,70.63
2023-02-26T22:57:16.414Z,70.74
2023-02-26T23:02:21.961Z,70.80
2023-02-26T23:07:27.513Z,71.28
2023-02-26T23:12:33.392Z,72.02
2023-02-26T23:17:39.597Z,71.84
2023-02-26T23:22:45.891Z,72.18
2023-02-26T23:27:51.263Z,72.31
2023-02-26T23:32:56.966Z,72.47
2023-02-26T23:38:02.437Z,72.78
2023-02-26T23:43:07.994Z,72.52
2023-02-26T23:48:13.723Z,72.51
2023-02-26T23:53:19.352Z,72.54
2023-02-26T23:58:26.697Z,72.59
